createdAt,value
2023-08-08T00:01:12.757Z,15.80
2023-08-08T00:03:47.908Z,15.76
2023-08-08T00:06:18.311Z,15.76
2023-08-08T00:08:48.404Z,15.72
2023-08-08T00:11:18.788Z,15.73
2023-08-08T00:13:49.831Z,15.72
2023-08-08T00:16:20.283Z,15.77
2023-08-08T00:18:54.844Z,15.69
2023-08-08T00:21:25.274Z,15.68
2023-08-08T00:23:56.930Z,15.68
2023-08-08T00:26:31.800Z,15.64
2023-08-08T00:29:03.307Z,15.64
2023-08-08T00:31:34.919Z,15.60
2023-08-08T00:34:07.967Z,15.60
2023-08-08T00:36:38.237Z,15.58
2023-08-08T00:39:09.267Z,15.59
2023-08-08T00:41:39.566Z,15.59
2023-08-08T00:44:10.189Z,15.58
2023-08-08T00:46:40.580Z,15.67
2023-08-08T00:49:13.901Z,15.70
2023-08-08T00:51:47.474Z,15.70
2023-08-08T00:54:22.639Z,15.74
2023-08-08T00:56:53.001Z,15.73
2023-08-08T00:59:23.710Z,15.74
2023-08-08T01:01:59.999Z,15.74
2023-08-08T01:04:33.664Z,15.71
2023-08-08T01:07:11.738Z,15.74
2023-08-08T01:09:57.185Z,15.77
2023-08-08T01:12:29.609Z,15.80
2023-08-08T01:15:00.939Z,15.78
2023-08-08T01:17:31.790Z,15.83
2023-08-08T01:20:05.582Z,15.86
2023-08-08T01:22:41.750Z,15.90
2023-08-08T01:25:14.934Z,15.94
2023-08-08T01:27:47.777Z,15.94
2023-08-08T01:30:19.489Z,16.04
2023-08-08T01:32:52.510Z,16.14
2023-08-08T01:35:23.063Z,16.24
2023-08-08T01:37:58.055Z,16.23
2023-08-08T01:40:33.118Z,16.27
2023-08-08T01:43:03.532Z,16.31
2023-08-08T01:45:37.993Z,16.25
2023-08-08T01:48:11.687Z,16.26
2023-08-08T01:50:45.339Z,16.33
2023-08-08T01:53:15.966Z,16.36
2023-08-08T01:55:48.827Z,16.37
2023-08-08T01:58:19.378Z,16.31
2023-08-08T02:00:48.174Z,16.36
2023-08-08T02:03:21.641Z,16.37
2023-08-08T02:05:52.408Z,16.38
2023-08-08T02:08:22.681Z,16.40
2023-08-08T02:10:55.429Z,16.47
2023-08-08T02:13:25.683Z,16.45
2023-08-08T02:15:58.453Z,16.42
2023-08-08T02:18:28.518Z,16.43
2023-08-08T02:20:58.782Z,16.40
2023-08-08T02:23:28.974Z,16.29
2023-08-08T02:26:01.563Z,16.27
2023-08-08T02:28:31.937Z,16.29
2023-08-08T02:31:04.039Z,16.32
2023-08-08T02:33:34.551Z,16.33
2023-08-08T02:36:04.922Z,16.32
2023-08-08T02:38:34.883Z,16.30
2023-08-08T02:41:10.805Z,16.35
2023-08-08T02:43:44.132Z,16.32
2023-08-08T02:46:14.528Z,16.29
2023-08-08T02:48:44.503Z,16.31
2023-08-08T02:51:14.817Z,16.20
2023-08-08T02:53:44.769Z,16.20
2023-08-08T02:56:17.697Z,16.13
2023-08-08T02:58:48.002Z,16.12
2023-08-08T03:01:18.965Z,16.13
2023-08-08T03:03:50.429Z,16.12
2023-08-08T03:06:20.900Z,16.18
2023-08-08T03:08:51.247Z,16.08
2023-08-08T03:11:24.109Z,16.07
2023-08-08T03:13:54.524Z,15.98
2023-08-08T03:16:24.884Z,15.93
2023-08-08T03:18:55.265Z,15.97
2023-08-08T03:21:25.664Z,15.94
2023-08-08T03:23:56.222Z,15.89
2023-08-08T03:26:31.342Z,15.94
2023-08-08T03:29:01.596Z,15.83
2023-08-08T03:31:32.298Z,15.77
2023-08-08T03:34:02.618Z,15.82
2023-08-08T03:36:33.021Z,15.81
2023-08-08T03:39:05.466Z,15.75
2023-08-08T03:41:40.170Z,15.72
2023-08-08T03:44:11.157Z,15.68
2023-08-08T03:46:41.448Z,15.66
2023-08-08T03:49:11.415Z,15.70
2023-08-08T03:51:41.701Z,15.74
2023-08-08T03:54:13.473Z,15.80
2023-08-08T03:56:46.403Z,15.86
2023-08-08T03:59:16.712Z,15.88
2023-08-08T04:01:46.666Z,15.93
2023-08-08T04:04:19.782Z,15.87
2023-08-08T04:06:53.527Z,15.98
2023-08-08T04:09:23.832Z,16.08
2023-08-08T04:11:56.527Z,16.17
2023-08-08T04:14:26.841Z,16.15
2023-08-08T04:16:56.874Z,16.31
2023-08-08T04:19:27.377Z,16.47
2023-08-08T04:21:57.989Z,16.60
2023-08-08T04:24:29.316Z,16.62
2023-08-08T04:27:02.233Z,16.67
2023-08-08T04:29:32.577Z,16.73
2023-08-08T04:32:03.001Z,16.80
2023-08-08T04:34:33.323Z,16.80
2023-08-08T04:37:03.285Z,17.05
2023-08-08T04:39:33.611Z,17.07
2023-08-08T04:42:06.959Z,17.20
2023-08-08T04:44:37.291Z,17.37
2023-08-08T04:47:07.570Z,17.26
2023-08-08T04:49:37.786Z,17.34
2023-08-08T04:52:08.417Z,17.72
2023-08-08T04:54:38.627Z,17.76
2023-08-08T04:57:12.771Z,18.18
2023-08-08T04:59:43.992Z,18.33
2023-08-08T05:02:14.297Z,18.34
2023-08-08T05:04:46.561Z,18.14
2023-08-08T05:07:16.909Z,17.87
2023-08-08T05:09:47.297Z,17.62
2023-08-08T05:12:20.138Z,17.49
2023-08-08T05:14:50.484Z,17.60
2023-08-08T05:17:20.879Z,17.49
2023-08-08T05:19:52.340Z,17.67
2023-08-08T05:22:22.597Z,17.75
2023-08-08T05:24:52.607Z,18.07
2023-08-08T05:27:25.454Z,18.34
2023-08-08T05:29:55.702Z,18.14
2023-08-08T05:32:26.105Z,18.29
2023-08-08T05:34:56.790Z,18.17
2023-08-08T05:37:27.179Z,18.16
2023-08-08T05:39:57.959Z,18.36
2023-08-08T05:42:35.020Z,18.42
2023-08-08T05:45:06.079Z,18.63
2023-08-08T05:47:37.029Z,18.88
2023-08-08T05:50:08.277Z,19.38
2023-08-08T05:52:38.565Z,19.83
2023-08-08T05:55:10.570Z,20.07
2023-08-08T05:57:43.511Z,19.88
2023-08-08T06:00:15.436Z,19.64
2023-08-08T06:02:45.737Z,19.47
2023-08-08T06:05:16.134Z,19.57
2023-08-08T06:07:46.552Z,19.68
2023-08-08T06:10:16.861Z,20.11
2023-08-08T06:12:49.696Z,20.70
2023-08-08T06:15:20.037Z,20.93
2023-08-08T06:17:50.311Z,21.22
2023-08-08T06:20:20.998Z,21.60
2023-08-08T06:22:51.322Z,21.90
2023-08-08T06:25:27.189Z,21.64
2023-08-08T06:28:03.246Z,22.16
2023-08-08T06:30:33.608Z,22.53
2023-08-08T06:33:04.718Z,22.58
2023-08-08T06:35:35.108Z,22.16
2023-08-08T06:38:05.527Z,21.98
2023-08-08T06:40:41.884Z,21.89
2023-08-08T06:43:14.791Z,21.84
2023-08-08T06:45:45.154Z,22.10
2023-08-08T06:48:15.520Z,21.97
2023-08-08T06:50:45.786Z,22.32
2023-08-08T06:53:16.193Z,22.69
2023-08-08T06:55:43.878Z,22.91
2023-08-08T06:58:16.842Z,22.21
2023-08-08T07:00:49.632Z,22.55
2023-08-08T07:03:20.096Z,22.66
2023-08-08T07:05:53.299Z,22.56
2023-08-08T07:08:23.922Z,23.03
2023-08-08T07:10:55.408Z,23.59
2023-08-08T07:13:29.890Z,23.07
2023-08-08T07:16:00.140Z,22.45
2023-08-08T07:18:30.836Z,22.49
2023-08-08T07:21:01.106Z,21.99
2023-08-08T07:23:31.410Z,22.54
2023-08-08T07:26:01.674Z,22.42
2023-08-08T07:28:34.682Z,22.33
2023-08-08T07:31:05.102Z,22.55
2023-08-08T07:33:35.531Z,23.02
2023-08-08T07:36:05.850Z,23.18
2023-08-08T07:38:36.478Z,23.55
2023-08-08T07:41:09.274Z,24.18
2023-08-08T07:43:42.241Z,24.56
2023-08-08T07:46:13.134Z,24.83
2023-08-08T07:48:43.477Z,24.94
2023-08-08T07:51:13.742Z,24.69
2023-08-08T07:53:47.278Z,24.71
2023-08-08T07:56:20.711Z,24.97
2023-08-08T07:58:54.924Z,24.85
2023-08-08T08:01:26.638Z,25.09
2023-08-08T08:03:57.098Z,24.85
2023-08-08T08:06:27.430Z,25.09
2023-08-08T08:08:57.727Z,25.02
2023-08-08T08:11:28.118Z,25.36
2023-08-08T08:14:00.998Z,25.48
2023-08-08T08:16:31.419Z,25.43
2023-08-08T08:19:06.666Z,25.55
2023-08-08T08:21:36.917Z,25.95
2023-08-08T08:24:10.305Z,25.92
2023-08-08T08:26:40.545Z,26.26
2023-08-08T08:29:16.368Z,26.05
2023-08-08T08:31:46.625Z,25.44
2023-08-08T08:34:16.834Z,24.98
2023-08-08T08:36:50.005Z,25.52
2023-08-08T08:39:20.874Z,25.71
2023-08-08T08:41:53.471Z,26.15
2023-08-08T08:44:27.117Z,26.28
2023-08-08T08:46:59.856Z,26.19
2023-08-08T08:49:32.679Z,26.03
2023-08-08T08:52:06.359Z,26.02
2023-08-08T08:54:37.419Z,25.54
2023-08-08T08:57:08.368Z,25.13
2023-08-08T08:59:41.285Z,25.16
2023-08-08T09:02:13.091Z,25.18
2023-08-08T09:04:44.439Z,25.37
2023-08-08T09:07:16.609Z,25.34
2023-08-08T09:09:47.782Z,25.73
2023-08-08T09:12:19.849Z,26.16
2023-08-08T09:14:59.389Z,26.80
2023-08-08T09:17:42.088Z,26.75
2023-08-08T09:20:19.059Z,26.74
2023-08-08T09:22:49.730Z,26.55
2023-08-08T09:25:20.035Z,27.00
2023-08-08T09:27:52.517Z,27.44
2023-08-08T09:30:25.939Z,28.27
2023-08-08T09:32:56.350Z,27.79
2023-08-08T09:35:27.745Z,26.75
2023-08-08T09:37:58.779Z,27.27
2023-08-08T09:40:29.160Z,27.26
2023-08-08T09:43:01.550Z,27.35
2023-08-08T09:45:44.217Z,27.06
2023-08-08T09:48:14.731Z,26.87
2023-08-08T09:50:46.539Z,26.99
2023-08-08T09:53:17.523Z,26.80
2023-08-08T09:55:48.457Z,26.16
2023-08-08T09:58:23.266Z,26.41
2023-08-08T10:00:56.521Z,26.61
2023-08-08T10:03:29.899Z,26.67
2023-08-08T10:06:00.483Z,27.07
2023-08-08T10:08:30.891Z,27.44
2023-08-08T10:11:01.322Z,27.51
2023-08-08T10:13:31.702Z,27.43
2023-08-08T10:16:11.786Z,27.17
2023-08-08T10:18:42.317Z,27.26
2023-08-08T10:21:12.877Z,27.12
2023-08-08T10:23:47.373Z,26.96
2023-08-08T10:26:23.872Z,26.77
2023-08-08T10:29:00.298Z,26.95
2023-08-08T10:31:37.915Z,26.97
2023-08-08T10:34:11.067Z,27.29
2023-08-08T10:36:55.312Z,26.91
2023-08-08T10:39:25.826Z,27.25
2023-08-08T10:41:56.116Z,27.37
2023-08-08T10:44:27.756Z,27.38
2023-08-08T10:47:04.604Z,27.29
2023-08-08T10:49:35.996Z,27.17
2023-08-08T10:52:07.814Z,26.94
2023-08-08T10:54:44.056Z,26.98
2023-08-08T10:57:20.744Z,26.55
2023-08-08T10:59:51.373Z,26.30
2023-08-08T11:02:27.825Z,25.40
2023-08-08T11:05:00.389Z,25.47
2023-08-08T11:07:32.047Z,25.36
2023-08-08T11:10:02.426Z,25.89
2023-08-08T11:12:32.767Z,26.61
2023-08-08T11:15:03.900Z,26.90
2023-08-08T11:17:40.689Z,27.32
2023-08-08T11:20:11.942Z,27.56
2023-08-08T11:22:42.289Z,27.70
2023-08-08T11:25:13.028Z,27.26
2023-08-08T11:27:44.617Z,27.18
2023-08-08T11:30:16.015Z,26.81
2023-08-08T11:33:15.452Z,26.44
2023-08-08T11:35:41.702Z,26.21
2023-08-08T11:38:12.041Z,26.27
2023-08-08T11:40:42.431Z,26.24
2023-08-08T11:43:13.140Z,26.14
2023-08-08T11:45:43.702Z,26.07
2023-08-08T11:48:17.097Z,25.95
2023-08-08T11:50:48.421Z,26.10
2023-08-08T11:53:18.721Z,26.25
2023-08-08T11:55:54.946Z,26.43
2023-08-08T11:58:28.122Z,26.59
2023-08-08T12:00:58.584Z,26.72
2023-08-08T12:03:32.356Z,26.34
2023-08-08T12:06:05.770Z,26.05
2023-08-08T12:08:37.140Z,25.89
2023-08-08T12:11:09.538Z,25.86
2023-08-08T12:13:43.719Z,25.62
2023-08-08T12:16:17.507Z,25.47
2023-08-08T12:18:53.111Z,25.93
2023-08-08T12:21:28.442Z,26.01
2023-08-08T12:23:58.957Z,25.96
2023-08-08T12:26:29.272Z,25.80
2023-08-08T12:28:59.627Z,25.92
2023-08-08T12:31:29.989Z,26.15
2023-08-08T12:34:04.060Z,25.89
2023-08-08T12:36:34.475Z,26.32
2023-08-08T12:39:04.837Z,26.14
2023-08-08T12:41:35.140Z,25.99
2023-08-08T12:44:05.477Z,25.70
2023-08-08T12:46:35.875Z,25.50
2023-08-08T12:49:09.633Z,25.17
2023-08-08T12:51:39.943Z,25.32
2023-08-08T12:54:10.587Z,25.73
2023-08-08T12:56:40.875Z,25.60
2023-08-08T12:59:11.216Z,25.71
2023-08-08T13:01:41.526Z,25.72
2023-08-08T13:06:48.305Z,25.77
2023-08-08T13:09:18.980Z,25.48
2023-08-08T13:11:49.349Z,25.52
2023-08-08T13:14:22.788Z,25.48
2023-08-08T13:16:54.467Z,25.50
2023-08-08T13:19:28.020Z,25.31
2023-08-08T13:21:59.320Z,25.13
2023-08-08T13:24:30.062Z,24.81
2023-08-08T13:27:00.398Z,25.08
2023-08-08T13:29:30.672Z,25.31
2023-08-08T13:32:01.249Z,25.37
2023-08-08T13:34:34.339Z,25.51
2023-08-08T13:37:04.846Z,25.34
2023-08-08T13:39:35.231Z,24.97
2023-08-08T13:42:05.795Z,25.26
2023-08-08T13:44:36.085Z,25.29
2023-08-08T13:47:09.314Z,25.42
2023-08-08T13:49:42.189Z,25.03
2023-08-08T13:52:13.163Z,25.02
2023-08-08T13:54:43.553Z,25.01
2023-08-08T13:57:17.472Z,24.82
2023-08-08T13:59:47.848Z,24.93
2023-08-08T14:02:21.059Z,25.08
2023-08-08T14:04:54.015Z,25.17
2023-08-08T14:07:25.326Z,25.08
2023-08-08T14:09:58.155Z,25.03
2023-08-08T14:12:28.629Z,24.89
2023-08-08T14:14:58.916Z,25.14
2023-08-08T14:17:29.301Z,25.22
2023-08-08T14:20:02.450Z,24.84
2023-08-08T14:22:32.857Z,24.73
2023-08-08T14:25:03.465Z,24.51
2023-08-08T14:27:33.996Z,24.48
2023-08-08T14:30:05.202Z,24.80
2023-08-08T14:32:40.688Z,24.89
2023-08-08T14:35:19.437Z,24.87
2023-08-08T14:37:52.646Z,24.71
2023-08-08T14:40:23.114Z,24.87
2023-08-08T14:42:56.186Z,24.83
2023-08-08T14:45:29.384Z,24.51
2023-08-08T14:48:00.012Z,24.07
2023-08-08T14:50:33.247Z,23.96
2023-08-08T14:53:03.526Z,23.82
2023-08-08T14:55:34.009Z,23.91
2023-08-08T14:58:04.340Z,24.05
2023-08-08T15:00:34.760Z,24.05
2023-08-08T15:03:05.308Z,24.16
2023-08-08T15:05:46.748Z,23.95
2023-08-08T15:08:17.768Z,23.87
2023-08-08T15:10:48.160Z,23.99
2023-08-08T15:13:18.421Z,24.11
2023-08-08T15:15:48.868Z,23.79
2023-08-08T15:18:20.548Z,23.72
2023-08-08T15:20:53.548Z,23.55
2023-08-08T15:23:25.734Z,23.45
2023-08-08T15:25:56.412Z,23.24
2023-08-08T15:28:26.841Z,23.18
2023-08-08T15:30:59.677Z,23.04
2023-08-08T15:33:32.946Z,23.07
2023-08-08T15:36:06.048Z,23.02
2023-08-08T15:38:36.401Z,22.86
2023-08-08T15:41:09.654Z,23.06
2023-08-08T15:43:42.086Z,23.19
2023-08-08T15:46:12.392Z,23.39
2023-08-08T15:48:43.381Z,23.69
2023-08-08T15:51:16.295Z,23.78
2023-08-08T15:53:46.653Z,23.83
2023-08-08T15:56:17.051Z,23.74
2023-08-08T15:58:47.432Z,23.56
2023-08-08T16:01:17.804Z,23.38
2023-08-08T16:03:50.483Z,23.26
2023-08-08T16:06:24.621Z,23.27
2023-08-08T16:08:56.055Z,23.16
2023-08-08T16:11:26.385Z,23.16
2023-08-08T16:13:56.636Z,23.08
2023-08-08T16:16:26.934Z,23.13
2023-08-08T16:18:57.259Z,23.10
2023-08-08T16:21:30.155Z,23.14
2023-08-08T16:24:00.560Z,23.05
2023-08-08T16:26:30.894Z,23.01
2023-08-08T16:29:01.412Z,22.97
2023-08-08T16:31:33.190Z,22.93
2023-08-08T16:34:04.369Z,22.85
2023-08-08T16:36:38.670Z,22.88
2023-08-08T16:39:18.322Z,22.78
2023-08-08T16:41:49.392Z,22.73
2023-08-08T16:44:21.805Z,22.58
2023-08-08T16:46:54.557Z,22.51
2023-08-08T16:49:24.977Z,22.34
2023-08-08T16:51:57.866Z,22.35
2023-08-08T16:54:28.250Z,22.20
2023-08-08T16:56:58.580Z,22.13
2023-08-08T16:59:28.841Z,22.10
2023-08-08T17:02:00.098Z,22.07
2023-08-08T17:04:31.009Z,22.02
2023-08-08T17:07:06.847Z,21.98
2023-08-08T17:09:37.242Z,21.96
2023-08-08T17:12:08.254Z,21.93
2023-08-08T17:14:39.071Z,21.89
2023-08-08T17:17:09.494Z,21.85
2023-08-08T17:19:39.931Z,21.78
2023-08-08T17:22:13.009Z,21.71
2023-08-08T17:24:43.333Z,21.66
2023-08-08T17:27:13.743Z,21.59
2023-08-08T17:29:43.984Z,21.51
2023-08-08T17:32:17.202Z,21.39
2023-08-08T17:34:47.632Z,21.31
2023-08-08T17:37:25.953Z,21.22
2023-08-08T17:39:56.276Z,21.06
2023-08-08T17:42:26.543Z,20.99
2023-08-08T17:44:56.890Z,20.89
2023-08-08T17:47:27.234Z,20.80
2023-08-08T17:49:58.903Z,20.70
2023-08-08T17:52:31.908Z,20.59
2023-08-08T17:55:22.142Z,20.45
2023-08-08T17:57:55.158Z,20.28
2023-08-08T18:00:25.952Z,20.14
2023-08-08T18:02:57.033Z,20.02
2023-08-08T18:05:27.693Z,19.94
2023-08-08T18:08:00.845Z,19.91
2023-08-08T18:10:32.966Z,19.83
2023-08-08T18:13:03.276Z,19.74
2023-08-08T18:15:33.888Z,19.59
2023-08-08T18:18:06.116Z,19.47
2023-08-08T18:20:44.298Z,19.41
2023-08-08T18:23:17.671Z,19.37
2023-08-08T18:25:48.616Z,19.31
2023-08-08T18:28:20.516Z,19.25
2023-08-08T18:30:51.504Z,19.31
2023-08-08T18:33:22.679Z,19.25
2023-08-08T18:35:54.603Z,19.13
2023-08-08T18:38:28.105Z,19.04
2023-08-08T18:40:58.923Z,18.98
2023-08-08T18:43:29.943Z,18.91
2023-08-08T18:46:00.704Z,18.86
2023-08-08T18:48:31.213Z,18.82
2023-08-08T18:51:01.587Z,18.71
2023-08-08T18:53:34.657Z,18.64
2023-08-08T18:56:05.029Z,18.57
2023-08-08T18:58:35.509Z,18.52
2023-08-08T19:01:06.980Z,18.45
2023-08-08T19:03:37.655Z,18.39
2023-08-08T19:06:15.462Z,18.29
2023-08-08T19:08:50.523Z,18.29
2023-08-08T19:11:21.010Z,18.17
2023-08-08T19:13:51.501Z,18.07
2023-08-08T19:16:21.871Z,18.01
2023-08-08T19:18:52.215Z,17.95
2023-08-08T19:21:23.306Z,17.91
2023-08-08T19:23:59.278Z,17.88
2023-08-08T19:26:30.384Z,17.81
2023-08-08T19:29:01.880Z,17.77
2023-08-08T19:31:32.264Z,17.68
2023-08-08T19:34:07.609Z,17.64
2023-08-08T19:36:38.284Z,17.59
2023-08-08T19:39:12.787Z,17.54
2023-08-08T19:41:48.654Z,17.49
2023-08-08T19:44:19.112Z,17.43
2023-08-08T19:46:49.514Z,17.38
2023-08-08T19:49:22.619Z,17.31
2023-08-08T19:51:52.942Z,17.21
2023-08-08T19:54:25.551Z,17.21
2023-08-08T19:56:55.958Z,17.18
2023-08-08T19:59:26.268Z,17.17
2023-08-08T20:01:59.907Z,17.16
2023-08-08T20:04:37.496Z,17.13
2023-08-08T20:07:08.187Z,17.09
2023-08-08T20:09:41.186Z,17.07
2023-08-08T20:12:11.614Z,17.08
2023-08-08T20:14:43.103Z,17.06
2023-08-08T20:17:13.430Z,17.07
2023-08-08T20:19:43.742Z,17.06
2023-08-08T20:22:13.740Z,17.06
2023-08-08T20:24:46.716Z,17.07
2023-08-08T20:27:17.001Z,17.06
2023-08-08T20:29:47.435Z,17.04
2023-08-08T20:32:17.637Z,17.05
2023-08-08T20:34:47.643Z,17.03
2023-08-08T20:37:18.739Z,16.96
2023-08-08T20:39:51.615Z,16.98
2023-08-08T20:42:22.106Z,16.94
2023-08-08T20:44:55.983Z,16.90
2023-08-08T20:47:26.265Z,16.87
2023-08-08T20:49:56.721Z,16.79
2023-08-08T20:52:27.086Z,16.75
2023-08-08T20:55:01.031Z,16.71
2023-08-08T20:57:31.514Z,16.67
2023-08-08T21:00:02.438Z,16.61
2023-08-08T21:02:34.490Z,16.60
2023-08-08T21:05:04.881Z,16.52
2023-08-08T21:07:36.893Z,16.53
2023-08-08T21:10:10.992Z,16.52
2023-08-08T21:12:41.406Z,16.50
2023-08-08T21:15:14.148Z,16.46
2023-08-08T21:17:47.484Z,16.50
2023-08-08T21:20:17.942Z,16.44
2023-08-08T21:22:48.294Z,16.38
2023-08-08T21:25:22.910Z,16.37
2023-08-08T21:27:53.235Z,16.34
2023-08-08T21:30:23.227Z,16.33
2023-08-08T21:32:53.488Z,16.33
2023-08-08T21:35:23.538Z,16.29
2023-08-08T21:37:53.883Z,16.27
2023-08-08T21:40:27.126Z,16.31
2023-08-08T21:42:57.376Z,16.27
2023-08-08T21:45:28.017Z,16.22
2023-08-08T21:47:59.917Z,16.22
2023-08-08T21:50:30.461Z,16.23
2023-08-08T21:53:00.895Z,16.24
2023-08-08T21:55:33.740Z,16.28
2023-08-08T21:58:07.193Z,16.34
2023-08-08T22:00:37.759Z,16.34
2023-08-08T22:03:13.935Z,16.34
2023-08-08T22:05:46.925Z,16.36
2023-08-08T22:08:17.318Z,16.37
2023-08-08T22:10:53.083Z,16.34
2023-08-08T22:13:23.903Z,16.39
2023-08-08T22:15:55.221Z,16.38
2023-08-08T22:18:25.580Z,16.37
2023-08-08T22:20:53.578Z,16.37
2023-08-08T22:23:23.972Z,16.38
2023-08-08T22:25:58.453Z,16.36
2023-08-08T22:28:28.874Z,16.22
2023-08-08T22:30:59.642Z,16.22
2023-08-08T22:33:32.417Z,16.21
2023-08-08T22:36:04.809Z,16.16
2023-08-08T22:38:37.530Z,16.13
2023-08-08T22:41:10.398Z,16.11
2023-08-08T22:43:40.975Z,16.05
2023-08-08T22:46:16.313Z,16.01
2023-08-08T22:48:46.600Z,15.96
2023-08-08T22:51:23.663Z,15.97
2023-08-08T22:53:56.374Z,15.92
2023-08-08T22:56:29.279Z,15.92
2023-08-08T22:58:59.521Z,15.87
2023-08-08T23:01:29.566Z,15.83
2023-08-08T23:03:59.861Z,15.78
2023-08-08T23:06:30.103Z,15.73
2023-08-08T23:09:00.389Z,15.68
2023-08-08T23:11:33.239Z,15.65
2023-08-08T23:14:03.702Z,15.61
2023-08-08T23:16:34.011Z,15.56
2023-08-08T23:19:09.593Z,15.54
2023-08-08T23:21:42.721Z,15.51
2023-08-08T23:24:13.373Z,15.48
2023-08-08T23:26:49.475Z,15.47
2023-08-08T23:29:19.796Z,15.43
2023-08-08T23:31:49.876Z,15.42
2023-08-08T23:34:20.838Z,15.36
2023-08-08T23:36:51.519Z,15.36
2023-08-08T23:39:25.904Z,15.30
2023-08-08T23:42:01.640Z,15.29
2023-08-08T23:44:31.921Z,15.26
2023-08-08T23:47:02.465Z,15.22
2023-08-08T23:49:32.913Z,15.19
2023-08-08T23:52:02.906Z,15.19
2023-08-08T23:54:35.416Z,15.16
2023-08-08T23:57:09.107Z,15.11
2023-08-08T23:59:42.317Z,15.09
